KBJC/BJC METAR and TAF weather

Enter ICAO airport designator
Station Type Date Time Source
KBJC METAR 2021/03/01 09:55 UTC NOAA

KBJC 010955Z AUTO 00000KT 10SM CLR M03/M16 A3022 RMK AO2


Station Type Date Time Source
KBJC Decoded METAR 2021/03/01 09:55 UTC NOAA

Broomfield / Jeffco, CO, United States (KBJC) 39-55N 105-07W
Mar 01, 2021 - 04:55 AM EST / 2021.03.01 0955 UTC
Wind: Calm:0
Visibility: 10 mile(s):0
Sky conditions: clear
Temperature: 26 F (-3 C)
Dew Point: 3 F (-16 C)
Relative Humidity: 35%
Pressure (altimeter): 30.22 in. Hg (1023 hPa)
ob: KBJC 010955Z AUTO 00000KT 10SM CLR M03/M16 A3022 RMK AO2
cycle: 10

Station Type Date Time Source
KBJC TAF 2021/03/01 10:42 UTC NOAA

TAF
AMD KBJC 010939Z 0110/0206 33005KT P6SM SKC
FM011400 VRB04KT P6SM SKC
FM011700 12006KT P6SM SKC
FM020400 25007KT P6SM SKC

Example: see airport list